createdAt,value
2018-05-10T00:00:18.618Z,71.04
2018-05-10T00:01:18.643Z,71.14
2018-05-10T00:02:18.667Z,70.84
2018-05-10T00:03:18.690Z,70.84
2018-05-10T00:04:18.715Z,70.84
2018-05-10T00:05:18.739Z,70.46
2018-05-10T00:06:18.762Z,70.75
2018-05-10T00:07:18.786Z,70.75
2018-05-10T00:08:18.810Z,70.65
2018-05-10T00:09:18.836Z,70.56
2018-05-10T00:10:18.858Z,71.04
2018-05-10T00:11:18.881Z,71.14
2018-05-10T00:12:18.905Z,71.14
2018-05-10T00:13:18.930Z,70.46
2018-05-10T00:14:18.956Z,70.27
2018-05-10T00:15:18.986Z,70.27
2018-05-10T00:16:19.003Z,70.65
2018-05-10T00:17:19.026Z,70.46
2018-05-10T00:18:19.048Z,71.04
2018-05-10T00:19:19.073Z,70.84
2018-05-10T00:20:19.096Z,70.65
2018-05-10T00:21:19.124Z,70.56
2018-05-10T00:22:19.144Z,70.94
2018-05-10T00:23:19.167Z,71.23
2018-05-10T00:24:19.235Z,71.14
2018-05-10T00:25:19.216Z,70.94
2018-05-10T00:26:19.240Z,71.14
2018-05-10T00:27:19.263Z,71.14
2018-05-10T00:28:19.287Z,71.33
2018-05-10T00:29:19.313Z,71.81
2018-05-10T00:30:19.334Z,71.61
2018-05-10T00:31:19.358Z,71.52
2018-05-10T00:32:19.382Z,71.91
2018-05-10T00:33:19.407Z,72.16
2018-05-10T00:34:19.430Z,72.06
2018-05-10T00:35:19.455Z,72.25
2018-05-10T00:36:19.478Z,72.54
2018-05-10T00:37:19.502Z,72.06
2018-05-10T00:38:19.526Z,72.34
2018-05-10T00:39:19.550Z,72.25
2018-05-10T00:40:19.574Z,72.44
2018-05-10T00:41:19.599Z,72.06
2018-05-10T00:42:19.620Z,72.44
2018-05-10T00:43:19.644Z,72.25
2018-05-10T00:44:19.669Z,72.44
2018-05-10T00:45:19.695Z,72.44
2018-05-10T00:46:19.716Z,72.44
2018-05-10T00:47:19.747Z,72.44
2018-05-10T00:48:19.767Z,72.73
2018-05-10T00:49:19.794Z,72.64
2018-05-10T00:50:19.811Z,71.96
2018-05-10T00:51:19.839Z,71.96
2018-05-10T00:52:19.859Z,72.44
2018-05-10T00:53:19.887Z,72.73
2018-05-10T00:54:19.906Z,72.64
2018-05-10T00:55:19.932Z,72.73
2018-05-10T00:56:19.955Z,72.54
2018-05-10T00:57:19.978Z,73.02
2018-05-10T00:58:20.002Z,73.11
2018-05-10T00:59:20.025Z,73.11
2018-05-10T01:00:20.050Z,73.02
2018-05-10T01:01:20.073Z,73.60
2018-05-10T01:02:20.097Z,73.41
2018-05-10T01:03:20.124Z,73.31
2018-05-10T01:04:20.144Z,73.69
2018-05-10T01:05:20.169Z,74.17
2018-05-10T01:06:20.191Z,74.27
2018-05-10T01:07:20.216Z,73.98
2018-05-10T01:08:20.240Z,74.04
2018-05-10T01:09:20.265Z,74.62
2018-05-10T01:10:20.287Z,74.71
2018-05-10T01:11:20.311Z,74.52
2018-05-10T01:12:20.334Z,74.43
2018-05-10T01:13:20.358Z,74.52
2018-05-10T01:14:20.381Z,74.52
2018-05-10T01:15:20.406Z,74.43
2018-05-10T01:16:20.429Z,74.43
2018-05-10T01:17:20.452Z,74.33
2018-05-10T01:18:20.476Z,74.62
2018-05-10T01:19:20.499Z,74.71
2018-05-10T01:20:20.524Z,74.43
2018-05-10T01:21:20.551Z,74.90
2018-05-10T01:22:20.570Z,75.00
2018-05-10T01:23:20.594Z,75.00
2018-05-10T01:24:20.618Z,75.20
2018-05-10T01:25:20.646Z,75.10
2018-05-10T01:26:20.666Z,75.00
2018-05-10T01:27:20.690Z,75.77
2018-05-10T01:28:20.715Z,75.20
2018-05-10T01:29:20.736Z,75.77
2018-05-10T01:30:20.759Z,75.57
2018-05-10T01:31:20.784Z,75.29
2018-05-10T01:32:20.808Z,75.67
2018-05-10T01:33:20.831Z,75.77
2018-05-10T01:34:20.855Z,75.67
2018-05-10T01:35:20.878Z,76.15
2018-05-10T01:36:20.901Z,76.34
2018-05-10T01:37:20.925Z,76.34
2018-05-10T01:38:20.949Z,76.69
2018-05-10T01:39:20.972Z,76.69
2018-05-10T01:40:20.998Z,77.26
2018-05-10T01:41:21.019Z,77.08
2018-05-10T01:42:21.044Z,77.56
2018-05-10T01:43:21.066Z,77.17
2018-05-10T01:44:21.091Z,77.75
2018-05-10T01:45:21.114Z,77.75
2018-05-10T01:46:21.136Z,77.84
2018-05-10T01:47:21.161Z,77.94
2018-05-10T01:48:21.185Z,78.13
2018-05-10T01:49:21.207Z,77.75
2018-05-10T01:50:21.231Z,78.03
2018-05-10T01:51:21.254Z,78.03
2018-05-10T01:52:21.278Z,77.94
2018-05-10T01:53:21.302Z,78.13
2018-05-10T01:54:21.324Z,78.32
2018-05-10T01:55:21.348Z,78.13
2018-05-10T01:56:21.373Z,78.13
2018-05-10T01:57:21.397Z,78.13
2018-05-10T01:58:21.419Z,78.03
2018-05-10T01:59:21.443Z,78.23
2018-05-10T02:00:21.466Z,78.23
2018-05-10T02:01:21.489Z,78.52
2018-05-10T02:02:21.512Z,78.61
2018-05-10T02:03:21.536Z,78.52
2018-05-10T02:04:21.560Z,78.90
2018-05-10T02:05:21.583Z,78.61
2018-05-10T02:06:21.607Z,78.70
2018-05-10T02:07:21.629Z,78.61
2018-05-10T02:08:21.657Z,78.99
2018-05-10T02:09:21.677Z,78.99
2018-05-10T02:10:21.699Z,79.19
2018-05-10T02:11:21.723Z,78.99
2018-05-10T02:12:21.748Z,79.09
2018-05-10T02:13:21.773Z,78.99
2018-05-10T02:14:21.794Z,78.99
2018-05-10T02:15:21.818Z,78.99
2018-05-10T02:16:21.841Z,79.28
2018-05-10T02:17:21.865Z,79.38
2018-05-10T02:18:21.888Z,79.09
2018-05-10T02:19:21.912Z,79.24
2018-05-10T02:20:21.936Z,79.72
2018-05-10T02:21:21.959Z,79.67
2018-05-10T02:22:21.983Z,79.67
2018-05-10T02:23:22.007Z,79.72
2018-05-10T02:24:22.030Z,80.30
2018-05-10T02:25:22.053Z,80.11
2018-05-10T02:26:22.076Z,80.68
2018-05-10T02:27:22.100Z,80.40
2018-05-10T02:28:22.123Z,81.07
2018-05-10T02:29:22.146Z,80.68
2018-05-10T02:30:22.170Z,80.68
2018-05-10T02:31:22.194Z,80.58
2018-05-10T02:32:22.217Z,81.16
2018-05-10T02:33:22.241Z,80.87
2018-05-10T02:34:22.263Z,81.26
2018-05-10T02:35:22.384Z,81.74
2018-05-10T02:36:22.415Z,81.64
2018-05-10T02:37:22.537Z,82.31
2018-05-10T02:38:22.356Z,82.41
2018-05-10T02:39:22.380Z,82.31
2018-05-10T02:40:22.405Z,82.70
2018-05-10T02:41:22.428Z,83.47
2018-05-10T02:42:22.452Z,82.89
2018-05-10T02:43:22.474Z,83.47
2018-05-10T02:44:22.499Z,83.56
2018-05-10T02:45:22.520Z,83.47
2018-05-10T02:46:22.543Z,83.47
2018-05-10T02:47:22.568Z,83.85
2018-05-10T02:48:22.590Z,84.00
2018-05-10T02:49:22.614Z,85.00
2018-05-10T02:50:22.636Z,85.05
2018-05-10T02:51:22.660Z,86.30
2018-05-10T02:52:22.686Z,86.21
2018-05-10T02:53:22.707Z,85.92
2018-05-10T02:54:22.731Z,86.58
2018-05-10T02:55:22.754Z,86.97
2018-05-10T02:56:22.777Z,87.55
2018-05-10T02:57:22.801Z,87.45
2018-05-10T02:58:22.827Z,87.93
2018-05-10T02:59:22.847Z,88.31
2018-05-10T03:00:22.870Z,88.60
2018-05-10T03:01:22.893Z,88.02
2018-05-10T03:02:22.917Z,89.18
2018-05-10T03:03:22.939Z,89.37
2018-05-10T03:04:22.962Z,90.19
2018-05-10T03:05:22.986Z,89.90
2018-05-10T03:06:23.008Z,90.28
2018-05-10T03:07:23.033Z,90.38
2018-05-10T03:08:23.056Z,90.19
2018-05-10T03:09:23.080Z,90.76
2018-05-10T03:10:23.102Z,90.67
2018-05-10T03:11:23.129Z,91.72
2018-05-10T03:12:23.150Z,91.53
2018-05-10T03:13:23.171Z,91.72
2018-05-10T03:14:23.195Z,91.72
2018-05-10T03:15:23.217Z,91.63
2018-05-10T03:16:23.241Z,91.63
2018-05-10T03:17:23.268Z,91.82
2018-05-10T03:18:23.285Z,91.72
2018-05-10T03:19:23.308Z,91.82
2018-05-10T03:20:23.334Z,92.01
2018-05-10T03:21:23.356Z,92.01
2018-05-10T03:22:23.377Z,92.30
2018-05-10T03:23:23.404Z,92.20
2018-05-10T03:24:23.423Z,92.20
2018-05-10T03:25:23.447Z,92.01
2018-05-10T03:26:23.468Z,92.97
2018-05-10T03:27:23.492Z,92.68
2018-05-10T03:28:23.525Z,92.49
2018-05-10T03:29:23.538Z,92.87
2018-05-10T03:30:23.561Z,93.26
2018-05-10T03:31:23.588Z,93.63
2018-05-10T03:32:23.607Z,93.83
2018-05-10T03:33:23.721Z,93.54
2018-05-10T03:34:23.653Z,94.12
2018-05-10T03:35:23.678Z,94.21
2018-05-10T03:36:23.700Z,94.69
2018-05-10T03:37:23.722Z,94.31
2018-05-10T03:38:23.745Z,95.26
2018-05-10T03:39:23.837Z,94.98
2018-05-10T03:40:23.829Z,95.26
2018-05-10T03:41:23.813Z,95.75
2018-05-10T03:42:23.835Z,96.13
2018-05-10T03:43:23.857Z,96.22
2018-05-10T03:44:23.881Z,96.51
2018-05-10T03:45:23.905Z,96.42
2018-05-10T03:46:23.945Z,97.14
2018-05-10T03:47:23.949Z,96.99
2018-05-10T03:48:23.972Z,96.99
2018-05-10T03:49:23.998Z,97.18
2018-05-10T03:50:24.021Z,97.66
2018-05-10T03:51:24.040Z,97.23
2018-05-10T03:52:24.065Z,97.04
2018-05-10T03:53:24.087Z,96.94
2018-05-10T03:54:24.111Z,97.09
2018-05-10T03:55:24.132Z,97.38
2018-05-10T03:56:24.157Z,96.70
2018-05-10T03:57:24.178Z,97.56
2018-05-10T03:58:24.201Z,97.09
2018-05-10T03:59:24.223Z,97.04
2018-05-10T04:00:24.247Z,97.38
2018-05-10T04:01:24.270Z,97.47
2018-05-10T04:02:24.291Z,97.28
2018-05-10T04:03:24.314Z,97.56
2018-05-10T04:04:24.340Z,97.47
2018-05-10T04:05:24.433Z,98.33
2018-05-10T04:06:24.381Z,98.43
2018-05-10T04:07:24.404Z,98.24
2018-05-10T04:08:24.428Z,99.29
2018-05-10T04:09:24.451Z,99.10
2018-05-10T04:10:24.476Z,99.48
2018-05-10T04:11:24.495Z,99.68
2018-05-10T04:12:24.519Z,99.99
2018-05-10T04:13:24.542Z,99.99
2018-05-10T04:14:24.563Z,99.99
2018-05-10T04:15:24.587Z,99.99
2018-05-10T04:16:24.611Z,99.99
2018-05-10T04:17:24.633Z,99.99
2018-05-10T04:18:24.654Z,99.99
2018-05-10T04:19:24.678Z,99.99
2018-05-10T04:20:24.701Z,99.99
2018-05-10T04:21:24.724Z,99.99
2018-05-10T04:22:24.747Z,99.99
2018-05-10T04:23:24.768Z,99.99
2018-05-10T04:24:24.792Z,99.99
2018-05-10T04:25:24.817Z,99.99
2018-05-10T04:26:24.837Z,99.99
2018-05-10T04:27:24.861Z,99.99
2018-05-10T04:28:24.883Z,99.99
2018-05-10T04:29:24.907Z,99.99
2018-05-10T04:30:24.930Z,99.99
2018-05-10T04:31:24.952Z,99.99
2018-05-10T04:32:24.976Z,99.99
2018-05-10T04:33:24.998Z,99.99
2018-05-10T04:34:25.023Z,99.99
2018-05-10T04:35:25.044Z,99.99
2018-05-10T04:36:25.066Z,99.99
2018-05-10T04:37:25.090Z,99.99
2018-05-10T04:38:25.111Z,99.99
2018-05-10T04:39:25.135Z,99.99
2018-05-10T04:40:25.159Z,99.99
2018-05-10T04:41:25.181Z,99.99
2018-05-10T04:42:25.202Z,99.99
2018-05-10T04:43:25.225Z,99.99
2018-05-10T04:44:25.250Z,99.99
2018-05-10T04:45:25.272Z,99.99
2018-05-10T04:46:25.294Z,99.99
2018-05-10T04:47:25.318Z,99.99
2018-05-10T04:48:25.340Z,99.99
2018-05-10T04:49:25.364Z,99.99
2018-05-10T04:50:25.386Z,99.99
2018-05-10T04:51:25.408Z,99.99
2018-05-10T04:52:25.436Z,99.99
2018-05-10T04:53:25.457Z,99.99
2018-05-10T04:54:25.477Z,99.99
2018-05-10T04:55:25.582Z,99.99
2018-05-10T04:56:25.530Z,99.99
2018-05-10T04:57:25.546Z,99.99
2018-05-10T04:58:25.571Z,99.99
2018-05-10T04:59:25.591Z,99.99
2018-05-10T05:00:25.615Z,99.99
2018-05-10T05:01:25.639Z,99.99
2018-05-10T05:02:25.660Z,99.99
2018-05-10T05:03:25.730Z,99.99
2018-05-10T05:04:25.706Z,99.99
2018-05-10T05:05:25.730Z,99.99
2018-05-10T05:06:25.753Z,99.99
2018-05-10T05:07:25.775Z,99.99
2018-05-10T05:08:25.797Z,99.99
2018-05-10T05:09:25.822Z,99.99
2018-05-10T05:10:25.843Z,99.99
2018-05-10T05:11:25.866Z,99.99
2018-05-10T05:12:25.890Z,99.99
2018-05-10T05:13:25.912Z,99.99
2018-05-10T05:14:25.937Z,99.99
2018-05-10T05:15:25.958Z,99.99
2018-05-10T05:16:25.982Z,99.99
2018-05-10T05:17:26.004Z,99.77
2018-05-10T05:18:26.025Z,99.58
2018-05-10T05:19:26.049Z,99.34
2018-05-10T05:20:26.071Z,99.24
2018-05-10T05:21:26.096Z,98.91
2018-05-10T05:22:26.119Z,98.62
2018-05-10T05:23:26.140Z,99.29
2018-05-10T05:24:26.166Z,99.58
2018-05-10T05:25:26.186Z,99.48
2018-05-10T05:26:26.209Z,99.72
2018-05-10T05:27:26.232Z,99.99
2018-05-10T05:28:26.258Z,99.99
2018-05-10T05:29:26.277Z,99.99
2018-05-10T05:30:26.304Z,99.99
2018-05-10T05:31:26.327Z,99.99
2018-05-10T05:32:26.346Z,99.99
2018-05-10T05:33:26.368Z,99.99
2018-05-10T05:34:26.392Z,99.99
2018-05-10T05:35:26.414Z,99.99
2018-05-10T05:36:26.443Z,99.99
2018-05-10T05:37:26.461Z,99.99
2018-05-10T05:38:26.483Z,99.99
2018-05-10T05:39:26.505Z,99.99
2018-05-10T05:40:26.528Z,99.99
2018-05-10T05:41:26.610Z,99.99
2018-05-10T05:42:26.574Z,99.99
2018-05-10T05:43:26.698Z,99.99
2018-05-10T05:44:26.619Z,99.99
2018-05-10T05:45:26.647Z,99.99
2018-05-10T05:46:26.665Z,99.99
2018-05-10T05:47:26.704Z,99.99
2018-05-10T05:48:26.710Z,99.99
2018-05-10T05:49:26.734Z,99.99
2018-05-10T05:50:26.756Z,99.99
2018-05-10T05:51:26.779Z,99.99
2018-05-10T05:52:26.802Z,99.72
2018-05-10T05:53:26.826Z,99.72
2018-05-10T05:54:26.845Z,99.34
2018-05-10T05:55:26.869Z,99.43
2018-05-10T05:56:26.893Z,99.99
2018-05-10T05:57:26.915Z,99.99
2018-05-10T05:58:26.937Z,99.99
2018-05-10T05:59:26.960Z,99.99
2018-05-10T06:00:26.983Z,99.99
2018-05-10T06:01:27.008Z,99.99
2018-05-10T06:02:27.029Z,99.99
2018-05-10T06:03:27.052Z,99.99
2018-05-10T06:04:27.075Z,99.99
2018-05-10T06:05:27.098Z,99.99
2018-05-10T06:06:27.119Z,99.99
2018-05-10T06:07:27.144Z,99.99
2018-05-10T06:08:27.165Z,99.99
2018-05-10T06:09:27.189Z,99.99
2018-05-10T06:10:27.210Z,99.99
2018-05-10T06:11:27.235Z,99.99
2018-05-10T06:12:27.257Z,99.99
2018-05-10T06:13:27.279Z,99.99
2018-05-10T06:14:27.301Z,99.99
2018-05-10T06:15:27.353Z,99.99
2018-05-10T06:16:27.346Z,99.99
2018-05-10T06:17:27.369Z,99.99
2018-05-10T06:18:27.392Z,99.99
2018-05-10T06:19:27.414Z,99.99
2018-05-10T06:20:27.437Z,99.99
2018-05-10T06:21:27.461Z,99.99
2018-05-10T06:22:27.484Z,99.99
2018-05-10T06:23:27.505Z,99.99
2018-05-10T06:24:27.528Z,99.99
2018-05-10T06:25:27.552Z,99.99
2018-05-10T06:26:27.574Z,99.99
2018-05-10T06:27:27.596Z,99.99
2018-05-10T06:28:27.621Z,99.99
2018-05-10T06:29:27.644Z,99.99
2018-05-10T06:30:27.666Z,99.99
2018-05-10T06:31:27.689Z,99.99
2018-05-10T06:32:27.711Z,99.99
2018-05-10T06:33:27.735Z,99.99
2018-05-10T06:34:27.757Z,99.99
2018-05-10T06:35:27.780Z,99.99
2018-05-10T06:36:27.802Z,99.99
2018-05-10T06:37:27.829Z,99.99
2018-05-10T06:38:27.848Z,98.72
2018-05-10T06:39:27.873Z,98.86
2018-05-10T06:40:27.896Z,93.63
2018-05-10T06:41:27.934Z,93.63
2018-05-10T06:42:27.944Z,92.24
2018-05-10T06:43:27.964Z,93.01
2018-05-10T06:44:28.004Z,93.10
2018-05-10T06:45:28.015Z,91.96
2018-05-10T06:46:28.035Z,92.14
2018-05-10T06:47:28.059Z,92.72
2018-05-10T06:48:28.082Z,92.29
2018-05-10T06:49:28.107Z,92.33
2018-05-10T06:50:28.135Z,88.39
2018-05-10T06:51:28.156Z,88.49
2018-05-10T06:52:28.179Z,87.92
2018-05-10T06:53:28.203Z,88.87
2018-05-10T06:54:28.226Z,88.49
2018-05-10T06:55:28.251Z,88.15
2018-05-10T06:56:28.275Z,87.29
2018-05-10T06:57:28.305Z,85.84
2018-05-10T06:58:28.325Z,84.78
2018-05-10T06:59:28.348Z,85.60
2018-05-10T07:00:28.375Z,84.92
2018-05-10T07:01:28.400Z,85.03
2018-05-10T07:02:28.425Z,86.18
2018-05-10T07:03:28.450Z,87.77
2018-05-10T07:04:28.475Z,89.40
2018-05-10T07:05:28.501Z,88.59
2018-05-10T07:06:28.525Z,89.94
2018-05-10T07:07:28.551Z,90.32
2018-05-10T07:08:28.576Z,92.05
2018-05-10T07:09:28.650Z,91.96
2018-05-10T07:10:28.625Z,92.72
2018-05-10T07:11:28.652Z,90.99
2018-05-10T07:12:28.677Z,90.70
2018-05-10T07:13:28.703Z,90.13
2018-05-10T07:14:28.727Z,88.31
2018-05-10T07:15:28.753Z,89.46
2018-05-10T07:16:28.778Z,91.57
2018-05-10T07:17:28.804Z,91.09
2018-05-10T07:18:28.828Z,90.13
2018-05-10T07:19:28.852Z,89.65
2018-05-10T07:20:28.879Z,89.46
2018-05-10T07:21:28.905Z,88.06
2018-05-10T07:22:28.928Z,87.96
2018-05-10T07:23:28.953Z,88.06
2018-05-10T07:24:28.978Z,86.76
2018-05-10T07:25:29.043Z,85.71
2018-05-10T07:26:29.029Z,86.28
2018-05-10T07:27:29.055Z,85.47
2018-05-10T07:28:29.079Z,86.43
2018-05-10T07:29:29.107Z,87.68
2018-05-10T07:30:29.127Z,87.10
2018-05-10T07:31:29.155Z,87.10
2018-05-10T07:32:29.178Z,86.72
2018-05-10T07:33:29.203Z,86.19
2018-05-10T07:34:29.227Z,86.72
2018-05-10T07:35:29.252Z,86.10
2018-05-10T07:36:29.277Z,85.04
2018-05-10T07:37:29.305Z,85.62
2018-05-10T07:38:29.325Z,86.00
2018-05-10T07:39:29.351Z,86.87
2018-05-10T07:40:29.376Z,87.05
2018-05-10T07:41:29.402Z,86.43
2018-05-10T07:42:29.424Z,85.57
2018-05-10T07:43:29.449Z,84.80
2018-05-10T07:44:29.479Z,83.36
2018-05-10T07:45:29.501Z,83.16
2018-05-10T07:46:29.525Z,83.45
2018-05-10T07:47:29.570Z,82.78
2018-05-10T07:48:29.574Z,83.93
2018-05-10T07:49:29.601Z,83.64
2018-05-10T07:50:29.621Z,83.36
2018-05-10T07:51:29.647Z,83.36
2018-05-10T07:52:29.674Z,82.53
2018-05-10T07:53:29.697Z,81.38
2018-05-10T07:54:29.721Z,81.48
2018-05-10T07:55:29.746Z,81.09
2018-05-10T07:56:29.771Z,79.50
2018-05-10T07:57:29.794Z,79.02
2018-05-10T07:58:29.820Z,77.90
2018-05-10T07:59:29.845Z,77.04
2018-05-10T08:00:29.870Z,76.94
2018-05-10T08:01:29.895Z,78.25
2018-05-10T08:02:29.919Z,78.88
2018-05-10T08:03:29.945Z,79.46
2018-05-10T08:04:29.969Z,80.13
2018-05-10T08:05:29.995Z,80.90
2018-05-10T08:06:30.020Z,80.22
2018-05-10T08:07:30.045Z,79.92
2018-05-10T08:08:30.069Z,79.02
2018-05-10T08:09:30.095Z,78.92
2018-05-10T08:10:30.119Z,78.25
2018-05-10T08:11:30.144Z,78.15
2018-05-10T08:12:30.170Z,77.33
2018-05-10T08:13:30.196Z,77.48
2018-05-10T08:14:30.221Z,77.96
2018-05-10T08:15:30.246Z,77.96
2018-05-10T08:16:30.271Z,77.13
2018-05-10T08:17:30.297Z,76.84
2018-05-10T08:18:30.322Z,76.26
2018-05-10T08:19:30.347Z,77.33
2018-05-10T08:20:30.376Z,77.33
2018-05-10T08:21:30.405Z,76.04
2018-05-10T08:22:30.423Z,76.90
2018-05-10T08:23:30.448Z,75.79
2018-05-10T08:24:30.474Z,75.98
2018-05-10T08:25:30.501Z,75.49
2018-05-10T08:26:30.527Z,76.46
2018-05-10T08:27:30.551Z,75.98
2018-05-10T08:28:30.577Z,75.88
2018-05-10T08:29:30.603Z,74.82
2018-05-10T08:30:30.626Z,74.67
2018-05-10T08:31:30.652Z,73.51
2018-05-10T08:32:30.678Z,73.03
2018-05-10T08:33:30.703Z,71.97
2018-05-10T08:34:30.728Z,71.97
2018-05-10T08:35:30.754Z,71.20
2018-05-10T08:36:30.856Z,71.97
2018-05-10T08:37:30.807Z,71.59
2018-05-10T08:38:30.838Z,70.92
2018-05-10T08:39:30.861Z,70.18
2018-05-10T08:40:30.883Z,68.32
2018-05-10T08:41:30.909Z,67.26
2018-05-10T08:42:30.935Z,66.20
2018-05-10T08:43:30.964Z,67.36
2018-05-10T08:44:30.987Z,66.88
2018-05-10T08:45:31.014Z,66.69
2018-05-10T08:46:31.039Z,67.23
2018-05-10T08:47:31.066Z,67.42
2018-05-10T08:48:31.093Z,67.58
2018-05-10T08:49:31.119Z,68.74
2018-05-10T08:50:31.145Z,68.44
2018-05-10T08:51:31.175Z,68.54
2018-05-10T08:52:31.198Z,67.65
2018-05-10T08:56:13.838Z,65.91
2018-05-10T08:56:14.980Z,66.39
2018-05-10T08:57:15.007Z,66.59
2018-05-10T08:58:15.034Z,67.03
2018-05-10T08:59:15.060Z,66.65
2018-05-10T09:00:15.087Z,67.39
2018-05-10T09:01:15.114Z,68.84
2018-05-10T09:02:15.145Z,66.78
2018-05-10T09:03:15.173Z,63.92
2018-05-10T09:04:15.195Z,61.74
2018-05-10T09:05:15.226Z,60.22
2018-05-10T09:06:15.248Z,58.90
2018-05-10T09:07:15.279Z,59.00
2018-05-10T09:08:15.305Z,57.67
2018-05-10T09:09:15.332Z,57.74
2018-05-10T09:10:15.358Z,57.74
2018-05-10T09:11:15.388Z,57.90
2018-05-10T09:12:15.415Z,59.61
2018-05-10T09:13:15.646Z,60.19
2018-05-10T09:14:15.472Z,60.86
2018-05-10T09:15:15.499Z,61.16
2018-05-10T09:16:15.528Z,61.54
2018-05-10T09:17:15.556Z,61.90
2018-05-10T09:18:15.583Z,62.99
2018-05-10T09:19:15.612Z,62.70
2018-05-10T09:20:15.707Z,61.25
2018-05-10T09:21:15.668Z,60.58
2018-05-10T09:22:15.697Z,60.55
2018-05-10T09:23:15.727Z,62.38
2018-05-10T09:24:15.754Z,62.54
2018-05-10T09:25:15.784Z,62.28
2018-05-10T09:26:15.816Z,61.80
2018-05-10T09:27:15.839Z,62.38
2018-05-10T09:28:15.868Z,62.86
2018-05-10T09:29:15.898Z,61.87
2018-05-10T09:30:15.925Z,62.73
2018-05-10T09:31:15.954Z,63.64
2018-05-10T09:32:15.981Z,64.08
2018-05-10T09:33:16.010Z,65.43
2018-05-10T09:34:16.037Z,66.36
2018-05-10T09:35:16.066Z,67.32
2018-05-10T09:36:16.094Z,67.99
2018-05-10T09:37:16.121Z,67.96
2018-05-10T09:38:16.149Z,69.50
2018-05-10T09:39:16.206Z,70.17
2018-05-10T09:40:16.204Z,70.62
2018-05-10T09:41:16.234Z,71.29
2018-05-10T09:42:16.257Z,71.67
2018-05-10T09:43:16.285Z,71.58
2018-05-10T09:44:16.311Z,71.33
2018-05-10T09:45:16.337Z,71.14
2018-05-10T09:46:16.437Z,70.56
2018-05-10T09:47:16.391Z,71.04
2018-05-10T09:48:16.419Z,70.62
2018-05-10T09:49:16.443Z,70.90
2018-05-10T09:50:16.469Z,71.39
2018-05-10T09:51:16.498Z,71.77
2018-05-10T09:52:16.520Z,72.22
2018-05-10T09:53:16.547Z,73.37
2018-05-10T09:54:16.572Z,73.75
2018-05-10T09:55:16.597Z,74.23
2018-05-10T09:56:16.624Z,75.00
2018-05-10T09:57:16.650Z,75.96
2018-05-10T09:58:16.674Z,76.64
2018-05-10T09:59:16.698Z,75.96
2018-05-10T10:00:16.724Z,78.88
2018-05-10T10:01:16.755Z,79.99
2018-05-10T10:02:16.775Z,79.80
2018-05-10T10:03:16.799Z,79.42
2018-05-10T10:04:16.825Z,80.34
2018-05-10T10:05:16.850Z,80.91
2018-05-10T10:06:16.963Z,83.41
2018-05-10T10:07:16.900Z,83.41
2018-05-10T10:08:16.924Z,84.27
2018-05-10T10:09:16.949Z,84.14
2018-05-10T10:10:16.971Z,84.71
2018-05-10T10:11:16.996Z,85.38
2018-05-10T10:12:17.022Z,86.54
2018-05-10T10:13:17.045Z,86.15
2018-05-10T10:14:17.070Z,87.73
2018-05-10T10:15:17.094Z,86.77
2018-05-10T10:16:17.121Z,85.91
2018-05-10T10:17:17.143Z,86.29
2018-05-10T10:18:17.166Z,85.62
2018-05-10T10:19:17.191Z,84.18
2018-05-10T10:20:17.215Z,84.18
2018-05-10T10:21:17.240Z,87.01
2018-05-10T10:22:17.270Z,87.98
2018-05-10T10:23:17.287Z,88.40
2018-05-10T10:24:17.311Z,87.15
2018-05-10T10:25:17.421Z,87.21
2018-05-10T10:26:17.361Z,87.54
2018-05-10T10:27:17.434Z,89.36
2018-05-10T10:28:17.409Z,88.07
2018-05-10T10:29:17.433Z,88.45
2018-05-10T10:30:17.455Z,89.61
2018-05-10T10:31:17.479Z,92.48
2018-05-10T10:32:17.578Z,91.76
2018-05-10T10:33:17.529Z,94.26
2018-05-10T10:34:17.552Z,93.49
2018-05-10T10:35:17.576Z,93.10
2018-05-10T10:36:17.600Z,92.43
2018-05-10T10:37:17.625Z,92.58
2018-05-10T10:38:17.806Z,96.22
2018-05-10T10:39:17.673Z,94.69
2018-05-10T10:40:17.696Z,95.55
2018-05-10T10:41:17.721Z,95.31
2018-05-10T10:42:17.747Z,96.75
2018-05-10T10:43:17.769Z,96.18
2018-05-10T10:44:17.792Z,96.51
2018-05-10T10:45:17.817Z,99.01
2018-05-10T10:46:17.845Z,99.99
2018-05-10T10:47:17.864Z,99.99
2018-05-10T10:48:17.888Z,99.39
2018-05-10T10:49:17.916Z,99.99
2018-05-10T10:50:17.935Z,99.39
2018-05-10T10:51:17.958Z,99.99
2018-05-10T10:52:17.983Z,99.01
2018-05-10T10:53:18.007Z,99.19
2018-05-10T10:54:18.029Z,98.14
2018-05-10T10:55:18.056Z,99.99
2018-05-10T10:56:18.078Z,98.62
2018-05-10T10:57:18.104Z,99.99
2018-05-10T10:58:19.087Z,99.99
2018-05-10T10:59:18.156Z,99.99
2018-05-10T11:00:18.479Z,99.99
2018-05-10T11:01:18.195Z,99.99
2018-05-10T11:02:18.257Z,99.39
2018-05-10T11:03:18.241Z,99.99
2018-05-10T11:04:18.278Z,99.19
2018-05-10T11:05:18.302Z,97.18
2018-05-10T11:06:18.335Z,99.99
2018-05-10T11:07:18.338Z,99.99
2018-05-10T11:08:18.359Z,99.99
2018-05-10T11:09:18.441Z,99.77
2018-05-10T11:10:18.406Z,98.43
2018-05-10T11:11:18.427Z,99.99
2018-05-10T11:12:18.452Z,99.53
2018-05-10T11:13:18.476Z,98.43
2018-05-10T11:14:18.496Z,99.99
2018-05-10T11:15:18.524Z,99.29
2018-05-10T11:16:18.701Z,99.99
2018-05-10T11:17:18.572Z,99.77
2018-05-10T11:18:18.813Z,98.33
2018-05-10T11:19:18.619Z,99.87
2018-05-10T11:20:19.430Z,99.48
2018-05-10T11:21:18.747Z,98.52
2018-05-10T11:22:18.692Z,99.99
2018-05-10T11:23:18.848Z,97.76
2018-05-10T11:24:18.814Z,98.52
2018-05-10T11:25:19.690Z,98.52
2018-05-10T11:26:18.779Z,97.38
2018-05-10T11:27:18.813Z,98.05
2018-05-10T11:28:18.832Z,99.19
2018-05-10T11:29:18.845Z,98.19
2018-05-10T11:30:18.868Z,96.56
2018-05-10T11:31:18.891Z,99.72
2018-05-10T11:32:18.916Z,99.24
2018-05-10T11:33:18.996Z,99.24
2018-05-10T11:34:18.960Z,99.99
2018-05-10T11:35:18.983Z,99.53
2018-05-10T11:36:19.008Z,99.43
2018-05-10T11:37:19.031Z,99.99
2018-05-10T11:38:19.056Z,99.99
2018-05-10T11:39:19.076Z,99.72
2018-05-10T11:40:19.102Z,98.76
2018-05-10T11:41:19.123Z,99.34
2018-05-10T11:42:19.145Z,97.33
2018-05-10T11:43:19.167Z,96.66
2018-05-10T11:44:19.191Z,98.47
2018-05-10T11:45:19.214Z,99.34
2018-05-10T11:46:19.237Z,98.96
2018-05-10T11:47:19.259Z,99.15
2018-05-10T11:48:19.283Z,97.90
2018-05-10T11:49:19.308Z,99.99
2018-05-10T11:50:19.328Z,99.91
2018-05-10T11:51:19.352Z,97.42
2018-05-10T11:56:19.466Z,97.23
2018-05-10T11:57:19.500Z,98.28
2018-05-10T11:58:19.513Z,98.19
2018-05-10T11:59:19.535Z,99.24
2018-05-10T12:00:19.558Z,98.96
2018-05-10T12:01:19.580Z,99.91
2018-05-10T12:02:19.603Z,97.23
2018-05-10T12:03:19.627Z,98.19
2018-05-10T12:04:19.649Z,99.58
2018-05-10T12:05:19.673Z,98.10
2018-05-10T12:06:19.698Z,99.99
2018-05-10T12:07:19.719Z,99.99
2018-05-10T12:08:19.741Z,99.05
2018-05-10T12:09:19.764Z,99.24
2018-05-10T12:10:19.787Z,97.90
2018-05-10T12:11:19.809Z,99.43
2018-05-10T12:12:19.835Z,99.15
2018-05-10T12:13:19.858Z,99.72
2018-05-10T12:14:19.878Z,99.99
2018-05-10T12:15:19.902Z,95.89
2018-05-10T12:16:19.925Z,96.56
2018-05-10T12:17:19.949Z,98.00
2018-05-10T12:18:19.969Z,93.40
2018-05-10T12:19:19.992Z,89.52
2018-05-10T12:20:20.022Z,89.04
2018-05-10T12:21:20.041Z,87.99
2018-05-10T12:22:20.060Z,90.67
2018-05-10T12:23:20.084Z,89.81
2018-05-10T12:24:20.108Z,91.92
2018-05-10T12:25:20.133Z,89.72
2018-05-10T12:26:20.151Z,89.62
2018-05-10T12:27:20.175Z,90.19
2018-05-10T12:28:20.198Z,92.01
2018-05-10T12:29:20.222Z,93.35
2018-05-10T12:30:20.327Z,93.45
2018-05-10T12:31:20.265Z,91.05
2018-05-10T12:32:20.292Z,87.99
2018-05-10T12:33:20.312Z,90.58
2018-05-10T12:34:20.336Z,92.78
2018-05-10T12:35:20.360Z,91.92
2018-05-10T12:36:20.382Z,88.85
2018-05-10T12:37:20.407Z,90.96
2018-05-10T12:38:20.424Z,90.09
2018-05-10T12:39:20.447Z,90.86
2018-05-10T12:40:20.472Z,93.64
2018-05-10T12:41:20.493Z,92.78
2018-05-10T12:42:20.515Z,92.30
2018-05-10T12:43:20.537Z,94.31
2018-05-10T12:44:20.565Z,90.67
2018-05-10T12:45:20.583Z,90.96
2018-05-10T12:46:20.606Z,90.58
2018-05-10T12:47:20.629Z,88.23
2018-05-10T12:48:20.651Z,89.86
2018-05-10T12:49:20.673Z,89.95
2018-05-10T12:50:20.699Z,88.52
2018-05-10T12:51:20.719Z,90.15
2018-05-10T12:52:20.745Z,89.86
2018-05-10T12:53:20.768Z,89.58
2018-05-10T12:54:20.789Z,89.48
2018-05-10T12:55:20.811Z,88.33
2018-05-10T12:56:20.911Z,88.95
2018-05-10T12:57:20.855Z,88.29
2018-05-10T12:58:20.876Z,90.77